createdAt,value
2019-04-28T00:00:56.437Z,56.30
2019-04-28T00:03:27.206Z,56.30
2019-04-28T00:06:08.768Z,56.30
2019-04-28T00:08:38.444Z,56.30
2019-04-28T00:11:07.911Z,56.10
2019-04-28T00:13:37.616Z,55.70
2019-04-28T00:16:08.600Z,55.70
2019-04-28T00:18:38.466Z,55.90
2019-04-28T00:21:10.931Z,56.10
2019-04-28T00:23:45.368Z,56.70
2019-04-28T00:26:33.058Z,57.00
2019-04-28T00:29:02.550Z,57.30
2019-04-28T00:31:32.225Z,56.90
2019-04-28T00:34:01.744Z,56.90
2019-04-28T00:36:31.497Z,56.60
2019-04-28T00:39:01.525Z,56.70
2019-04-28T00:41:36.009Z,56.80
2019-04-28T00:44:07.677Z,56.90
2019-04-28T00:46:37.976Z,57.10
2019-04-28T00:49:07.491Z,57.20
2019-04-28T00:51:43.227Z,57.60
2019-04-28T00:54:14.409Z,57.90
2019-04-28T00:56:46.657Z,57.90
2019-04-28T00:59:21.584Z,58.30
2019-04-28T01:01:56.848Z,58.70
2019-04-28T01:04:28.866Z,58.80
2019-04-28T01:07:01.529Z,59.30
2019-04-28T01:09:31.580Z,58.90
2019-04-28T01:12:01.832Z,58.80
2019-04-28T01:14:31.690Z,58.60
2019-04-28T01:17:12.103Z,58.60
2019-04-28T01:19:49.617Z,59.30
2019-04-28T01:22:21.354Z,59.50
2019-04-28T01:24:52.779Z,59.70
2019-04-28T01:27:31.251Z,59.70
2019-04-28T01:30:11.460Z,59.80
2019-04-28T01:32:42.875Z,59.60
2019-04-28T01:35:20.848Z,59.60
2019-04-28T01:37:51.157Z,59.70
2019-04-28T01:40:24.191Z,59.50
2019-04-28T01:42:59.883Z,59.50
2019-04-28T01:45:35.174Z,59.50
2019-04-28T01:48:05.294Z,59.30
2019-04-28T01:50:37.405Z,58.90
2019-04-28T01:53:07.351Z,58.80
2019-04-28T01:55:39.536Z,58.30
2019-04-28T01:58:15.090Z,57.90
2019-04-28T02:00:44.166Z,57.50
2019-04-28T02:03:14.208Z,57.40
2019-04-28T02:05:45.252Z,57.00
2019-04-28T02:08:17.956Z,56.70
2019-04-28T02:10:50.113Z,56.40
2019-04-28T02:13:20.751Z,57.10
2019-04-28T02:16:15.779Z,56.10
2019-04-28T02:18:45.776Z,55.80
2019-04-28T02:21:19.619Z,55.70
2019-04-28T02:23:54.983Z,55.20
2019-04-28T02:26:26.202Z,55.20
2019-04-28T02:29:00.699Z,55.20
2019-04-28T02:31:31.766Z,55.10
2019-04-28T02:34:06.333Z,55.10
2019-04-28T02:36:37.463Z,54.60
2019-04-28T02:39:07.160Z,54.70
2019-04-28T02:41:40.948Z,55.10
2019-04-28T02:44:10.481Z,55.80
2019-04-28T02:46:52.823Z,55.70
2019-04-28T02:49:30.642Z,55.70
2019-04-28T02:52:10.702Z,55.80
2019-04-28T02:54:43.378Z,55.80
2019-04-28T02:57:20.631Z,55.40
2019-04-28T03:00:02.562Z,55.20
2019-04-28T03:02:35.352Z,55.10
2019-04-28T03:05:12.299Z,55.40
2019-04-28T03:07:51.354Z,55.60
2019-04-28T03:10:24.438Z,55.60
2019-04-28T03:12:57.239Z,55.60
2019-04-28T03:15:30.437Z,55.70
2019-04-28T03:18:01.697Z,55.90
2019-04-28T03:20:41.923Z,55.90
2019-04-28T03:23:13.874Z,56.40
2019-04-28T03:25:55.363Z,56.40
2019-04-28T03:28:34.958Z,56.90
2019-04-28T03:31:36.868Z,57.40
2019-04-28T03:33:49.128Z,58.10
2019-04-28T03:36:23.459Z,58.50
2019-04-28T03:39:03.665Z,59.00
2019-04-28T03:41:34.717Z,59.00
2019-04-28T03:44:07.698Z,59.00
2019-04-28T03:46:44.328Z,58.90
2019-04-28T03:49:16.137Z,59.20
2019-04-28T03:51:50.622Z,59.50
2019-04-28T03:54:20.454Z,59.40
2019-04-28T03:56:53.662Z,59.60
2019-04-28T03:59:25.002Z,59.70
2019-04-28T04:02:00.767Z,59.90
2019-04-28T04:04:32.232Z,60.40
2019-04-28T04:07:06.228Z,60.20
2019-04-28T04:09:41.340Z,60.90
2019-04-28T04:12:13.924Z,61.20
2019-04-28T04:14:55.076Z,61.60
2019-04-28T04:17:36.737Z,61.50
2019-04-28T04:20:30.976Z,61.70
2019-04-28T04:23:01.746Z,61.60
2019-04-28T04:25:36.243Z,61.70
2019-04-28T04:28:11.923Z,63.70
2019-04-28T04:30:41.916Z,63.50
2019-04-28T04:33:17.053Z,64.80
2019-04-28T04:35:51.711Z,64.10
2019-04-28T04:38:21.899Z,64.70
2019-04-28T04:40:52.104Z,64.00
2019-04-28T04:43:23.513Z,64.40
2019-04-28T04:45:54.453Z,62.20
2019-04-28T04:48:23.953Z,61.80
2019-04-28T04:50:54.177Z,61.80
2019-04-28T04:53:23.748Z,62.50
2019-04-28T04:55:53.309Z,62.60
2019-04-28T04:58:22.844Z,62.80
2019-04-28T05:01:00.806Z,62.50
2019-04-28T05:03:32.045Z,62.80
2019-04-28T05:06:03.154Z,61.60
2019-04-28T05:08:32.556Z,60.60
2019-04-28T05:11:02.086Z,61.90
2019-04-28T05:13:31.636Z,62.60
2019-04-28T05:16:01.210Z,63.30
2019-04-28T05:18:30.731Z,63.90
2019-04-28T05:21:00.265Z,63.10
2019-04-28T05:23:31.371Z,62.50
2019-04-28T05:26:02.526Z,63.40
2019-04-28T05:28:36.426Z,63.50
2019-04-28T05:31:03.040Z,64.00
2019-04-28T05:33:34.044Z,64.20
2019-04-28T05:36:03.686Z,64.20
2019-04-28T05:38:33.116Z,64.50
2019-04-28T05:41:02.917Z,64.60
2019-04-28T05:43:32.485Z,64.60
2019-04-28T05:46:02.191Z,64.50
2019-04-28T05:48:36.038Z,63.90
2019-04-28T05:51:23.745Z,63.90
2019-04-28T05:53:54.820Z,63.80
2019-04-28T05:56:39.691Z,63.40
2019-04-28T05:59:27.511Z,62.60
2019-04-28T06:02:01.228Z,60.90
2019-04-28T06:04:30.784Z,59.40
2019-04-28T06:07:04.627Z,58.90
2019-04-28T06:09:37.164Z,58.30
2019-04-28T06:12:10.176Z,58.30
2019-04-28T06:14:40.243Z,58.20
2019-04-28T06:17:11.006Z,57.30
2019-04-28T06:19:40.999Z,56.80
2019-04-28T06:22:10.558Z,54.60
2019-04-28T06:24:40.058Z,53.60
2019-04-28T06:27:09.554Z,52.80
2019-04-28T06:29:39.114Z,52.40
2019-04-28T06:32:09.134Z,51.20
2019-04-28T06:34:38.532Z,51.30
2019-04-28T06:37:08.048Z,51.00
2019-04-28T06:39:37.462Z,51.30
2019-04-28T06:42:10.049Z,51.50
2019-04-28T06:44:39.473Z,51.50
2019-04-28T06:47:08.956Z,51.40
2019-04-28T06:49:38.444Z,51.40
2019-04-28T06:52:07.979Z,51.60
2019-04-28T06:54:37.438Z,50.70
2019-04-28T06:57:06.975Z,48.10
2019-04-28T06:59:36.583Z,47.30
2019-04-28T07:02:06.148Z,46.60
2019-04-28T07:04:35.668Z,46.40
2019-04-28T07:07:05.304Z,46.80
2019-04-28T07:09:34.932Z,47.80
2019-04-28T07:12:04.554Z,47.60
2019-04-28T07:14:34.055Z,47.60
2019-04-28T07:17:03.579Z,48.50
2019-04-28T07:19:35.966Z,49.70
2019-04-28T07:22:12.940Z,50.00
2019-04-28T07:24:44.799Z,51.10
2019-04-28T07:27:13.714Z,56.30
2019-04-28T07:29:43.212Z,57.30
2019-04-28T07:32:12.853Z,60.60
2019-04-28T07:34:42.398Z,59.40
2019-04-28T07:37:11.963Z,60.90
2019-04-28T07:39:41.480Z,64.10
2019-04-28T07:42:11.045Z,63.50
2019-04-28T07:44:40.650Z,65.00
2019-04-28T07:47:10.094Z,66.00
2019-04-28T07:49:39.633Z,66.00
2019-04-28T07:52:10.879Z,67.00
2019-04-28T07:54:40.497Z,67.20
2019-04-28T07:57:09.921Z,66.70
2019-04-28T07:59:40.476Z,67.40
2019-04-28T08:02:10.206Z,62.30
2019-04-28T08:04:39.661Z,60.70
2019-04-28T08:07:09.155Z,58.30
2019-04-28T08:09:38.782Z,56.30
2019-04-28T08:12:09.949Z,54.80
2019-04-28T08:14:39.367Z,56.30
2019-04-28T08:17:08.877Z,58.60
2019-04-28T08:19:38.429Z,58.90
2019-04-28T08:22:07.903Z,60.60
2019-04-28T08:24:37.382Z,59.90
2019-04-28T08:27:06.900Z,58.10
2019-04-28T08:29:36.529Z,58.80
2019-04-28T08:32:10.408Z,59.80
2019-04-28T08:34:42.623Z,62.30
2019-04-28T08:37:11.839Z,62.80
2019-04-28T08:39:41.392Z,60.50
2019-04-28T08:42:10.866Z,60.40
2019-04-28T08:44:40.389Z,56.00
2019-04-28T08:47:09.868Z,54.90
2019-04-28T08:49:40.338Z,53.70
2019-04-28T08:52:09.748Z,55.20
2019-04-28T08:54:39.222Z,58.00
2019-04-28T08:57:08.764Z,58.10
2019-04-28T08:59:38.297Z,58.10
2019-04-28T09:02:08.318Z,59.60
2019-04-28T09:04:38.088Z,58.20
2019-04-28T09:07:07.631Z,57.40
2019-04-28T09:09:37.118Z,55.90
2019-04-28T09:12:07.068Z,56.20
2019-04-28T09:14:36.565Z,54.80
2019-04-28T09:17:06.320Z,55.20
2019-04-28T09:19:35.945Z,52.50
2019-04-28T09:22:05.615Z,50.00
2019-04-28T09:24:35.109Z,49.60
2019-04-28T09:27:04.735Z,46.50
2019-04-28T09:29:34.215Z,44.10
2019-04-28T09:32:03.821Z,45.20
2019-04-28T09:34:33.450Z,45.50
2019-04-28T09:37:02.984Z,46.60
2019-04-28T09:39:46.024Z,46.90
2019-04-28T09:42:32.443Z,46.40
2019-04-28T09:45:04.221Z,48.60
2019-04-28T09:47:34.481Z,47.50
2019-04-28T09:50:05.816Z,47.80
2019-04-28T09:52:35.644Z,47.80
2019-04-28T09:55:05.745Z,48.20
2019-04-28T09:57:35.231Z,48.70
2019-04-28T10:00:08.197Z,49.40
2019-04-28T10:02:38.047Z,49.00
2019-04-28T10:05:11.091Z,47.50
2019-04-28T10:07:40.733Z,49.60
2019-04-28T10:10:10.909Z,48.90
2019-04-28T10:12:40.396Z,49.40
2019-04-28T10:15:10.232Z,49.40
2019-04-28T10:17:39.597Z,50.80
2019-04-28T10:20:09.471Z,49.80
2019-04-28T10:22:40.031Z,50.10
2019-04-28T10:25:10.101Z,49.50
2019-04-28T10:27:39.630Z,48.30
2019-04-28T10:30:10.686Z,48.20
2019-04-28T10:32:41.311Z,48.40
2019-04-28T10:35:11.271Z,48.90
2019-04-28T10:37:40.937Z,48.30
2019-04-28T10:40:15.452Z,47.90
2019-04-28T10:42:45.222Z,48.20
2019-04-28T10:45:17.442Z,45.50
2019-04-28T10:47:47.058Z,46.50
2019-04-28T10:50:16.895Z,47.30
2019-04-28T10:52:46.529Z,48.80
2019-04-28T10:55:16.080Z,48.20
2019-04-28T10:57:45.663Z,47.00
2019-04-28T11:00:18.314Z,47.30
2019-04-28T11:02:47.992Z,47.60
2019-04-28T11:05:19.184Z,47.30
2019-04-28T11:07:48.910Z,46.90
2019-04-28T11:10:20.417Z,47.50
2019-04-28T11:12:50.232Z,47.80
2019-04-28T11:15:30.319Z,48.50
2019-04-28T11:17:59.857Z,48.50
2019-04-28T11:20:29.363Z,48.40
2019-04-28T11:22:58.953Z,47.90
2019-04-28T11:25:28.447Z,47.40
2019-04-28T11:27:58.033Z,47.10
2019-04-28T11:30:29.436Z,46.20
2019-04-28T11:33:01.504Z,46.70
2019-04-28T11:35:32.745Z,47.40
2019-04-28T11:38:02.289Z,45.60
2019-04-28T11:40:33.493Z,45.40
2019-04-28T11:43:03.900Z,46.60
2019-04-28T11:45:35.990Z,46.90
2019-04-28T11:48:06.561Z,45.40
2019-04-28T11:50:36.126Z,48.20
2019-04-28T11:53:05.698Z,46.80
2019-04-28T11:55:35.147Z,45.40
2019-04-28T11:58:05.216Z,44.40
2019-04-28T12:00:36.499Z,45.00
2019-04-28T12:03:06.094Z,45.90
2019-04-28T12:05:38.549Z,44.30
2019-04-28T12:08:08.248Z,45.80
2019-04-28T12:10:54.676Z,46.70
2019-04-28T12:13:34.731Z,45.80
2019-04-28T12:16:11.716Z,45.00
2019-04-28T12:19:01.175Z,44.80
2019-04-28T12:21:30.891Z,45.40
2019-04-28T12:24:00.376Z,45.50
2019-04-28T12:26:30.001Z,46.50
2019-04-28T12:29:00.887Z,46.70
2019-04-28T12:31:30.553Z,46.70
2019-04-28T12:34:00.001Z,47.10
2019-04-28T12:36:29.548Z,44.50
2019-04-28T12:38:59.171Z,45.10
2019-04-28T12:41:28.742Z,45.10
2019-04-28T12:43:58.303Z,45.10
2019-04-28T12:46:28.116Z,44.60
2019-04-28T12:48:59.202Z,46.20
2019-04-28T12:51:28.726Z,45.90
2019-04-28T12:54:00.387Z,45.50
2019-04-28T12:56:30.279Z,44.30
2019-04-28T12:59:02.175Z,45.30
2019-04-28T13:01:43.085Z,43.30
2019-04-28T13:04:18.808Z,44.50
2019-04-28T13:07:08.404Z,44.50
2019-04-28T13:09:38.135Z,45.00
2019-04-28T13:12:07.924Z,43.70
2019-04-28T13:14:37.607Z,44.40
2019-04-28T13:17:28.416Z,44.30
2019-04-28T13:19:57.666Z,44.00
2019-04-28T13:22:27.270Z,43.80
2019-04-28T13:24:59.963Z,42.20
2019-04-28T13:27:29.463Z,45.80
2019-04-28T13:29:59.001Z,47.00
2019-04-28T13:32:28.532Z,48.80
2019-04-28T13:34:57.887Z,47.70
2019-04-28T13:37:31.869Z,47.40
2019-04-28T13:40:03.200Z,47.20
2019-04-28T13:42:34.432Z,47.30
2019-04-28T13:45:07.557Z,47.80
2019-04-28T13:47:43.244Z,48.80
2019-04-28T13:50:17.954Z,49.20
2019-04-28T13:52:49.171Z,48.60
2019-04-28T13:55:20.369Z,48.80
2019-04-28T13:57:50.039Z,49.40
2019-04-28T14:00:43.059Z,50.10
2019-04-28T14:03:19.745Z,48.20
2019-04-28T14:06:01.746Z,47.30
2019-04-28T14:08:31.244Z,46.40
2019-04-28T14:11:00.673Z,46.30
2019-04-28T14:13:31.499Z,49.00
2019-04-28T14:16:01.478Z,47.90
2019-04-28T14:18:31.241Z,48.80
2019-04-28T14:21:12.722Z,46.80
2019-04-28T14:23:42.129Z,46.10
2019-04-28T14:26:11.644Z,48.70
2019-04-28T14:28:41.211Z,45.60
2019-04-28T14:31:10.748Z,44.20
2019-04-28T14:33:40.349Z,44.10
2019-04-28T14:36:10.051Z,44.30
2019-04-28T14:38:39.617Z,42.90
2019-04-28T14:41:09.246Z,42.60
2019-04-28T14:43:38.778Z,41.80
2019-04-28T14:46:08.278Z,43.00
2019-04-28T14:48:37.998Z,44.10
2019-04-28T14:51:07.642Z,43.50
2019-04-28T14:53:37.224Z,42.70
2019-04-28T14:56:07.442Z,41.40
2019-04-28T14:58:37.593Z,41.10
2019-04-28T15:01:17.845Z,40.60
2019-04-28T15:03:52.054Z,43.10
2019-04-28T15:06:23.212Z,41.10
2019-04-28T15:09:00.549Z,41.30
2019-04-28T15:11:36.037Z,42.10
2019-04-28T15:14:05.580Z,39.90
2019-04-28T15:16:35.142Z,37.60
2019-04-28T15:19:04.741Z,37.30
2019-04-28T15:21:34.346Z,40.70
2019-04-28T15:24:11.713Z,39.60
2019-04-28T15:26:41.281Z,37.20
2019-04-28T15:29:10.830Z,35.60
2019-04-28T15:31:40.353Z,36.70
2019-04-28T15:34:11.262Z,37.50
2019-04-28T15:36:40.802Z,39.30
2019-04-28T15:39:11.882Z,38.70
2019-04-28T15:41:41.670Z,39.60
2019-04-28T15:44:11.232Z,39.70
2019-04-28T15:46:40.761Z,39.30
2019-04-28T15:49:10.317Z,38.20
2019-04-28T15:51:39.844Z,38.20
2019-04-28T15:54:09.423Z,38.50
2019-04-28T15:56:40.911Z,38.90
2019-04-28T15:59:10.318Z,41.70
2019-04-28T16:01:40.006Z,42.60
2019-04-28T16:04:09.499Z,42.10
2019-04-28T16:06:39.016Z,43.70
2019-04-28T16:09:10.538Z,44.90
2019-04-28T16:11:42.167Z,44.80
2019-04-28T16:14:11.781Z,44.20
2019-04-28T16:16:41.391Z,43.90
2019-04-28T16:19:11.019Z,44.80
2019-04-28T16:21:41.643Z,44.70
2019-04-28T16:24:11.295Z,45.00
2019-04-28T16:26:41.647Z,46.50
2019-04-28T16:29:13.545Z,46.50
2019-04-28T16:31:43.072Z,47.20
2019-04-28T16:34:12.617Z,47.80
2019-04-28T16:36:42.110Z,47.70
2019-04-28T16:39:11.687Z,48.00
2019-04-28T16:41:41.982Z,47.70
2019-04-28T16:44:11.606Z,47.90
2019-04-28T16:46:41.182Z,48.10
2019-04-28T16:49:10.831Z,49.20
2019-04-28T16:51:40.291Z,48.70
2019-04-28T16:54:09.902Z,48.50
2019-04-28T16:56:50.345Z,50.00
2019-04-28T16:59:33.865Z,50.10
2019-04-28T17:02:17.400Z,49.40
2019-04-28T17:04:47.206Z,49.60
2019-04-28T17:07:16.777Z,48.80
2019-04-28T17:09:46.387Z,49.20
2019-04-28T17:12:16.422Z,49.10
2019-04-28T17:14:45.891Z,49.10
2019-04-28T17:17:15.389Z,49.60
2019-04-28T17:19:45.099Z,48.60
2019-04-28T17:22:14.638Z,48.90
2019-04-28T17:24:44.411Z,49.60
2019-04-28T17:27:13.903Z,49.90
2019-04-28T17:29:43.490Z,50.00
2019-04-28T17:32:13.009Z,50.10
2019-04-28T17:34:42.617Z,49.90
2019-04-28T17:37:12.630Z,50.50
2019-04-28T17:39:42.299Z,50.50
2019-04-28T17:42:13.375Z,50.70
2019-04-28T17:44:42.983Z,50.50
2019-04-28T17:47:14.421Z,50.90
2019-04-28T17:49:43.804Z,50.60
2019-04-28T17:52:13.365Z,60.20
2019-04-28T17:54:42.828Z,48.10
2019-04-28T17:57:39.841Z,49.80
2019-04-28T18:00:26.981Z,51.30
2019-04-28T18:03:00.518Z,51.80
2019-04-28T18:05:47.899Z,51.40
2019-04-28T18:08:21.159Z,51.60
2019-04-28T18:10:49.264Z,51.20
2019-04-28T18:13:19.043Z,51.30
2019-04-28T18:15:53.130Z,51.50
2019-04-28T18:18:24.193Z,52.20
2019-04-28T18:20:53.617Z,53.40
2019-04-28T18:23:23.400Z,54.50
2019-04-28T18:25:54.105Z,55.00
2019-04-28T18:28:23.993Z,55.60
2019-04-28T18:31:04.296Z,55.60
2019-04-28T18:33:35.739Z,55.80
2019-04-28T18:36:14.021Z,56.30
2019-04-28T18:38:45.399Z,56.40
2019-04-28T18:41:16.586Z,56.30
2019-04-28T18:43:47.711Z,56.40
2019-04-28T18:46:18.753Z,56.30
2019-04-28T18:48:48.438Z,59.10
2019-04-28T18:51:17.835Z,60.50
2019-04-28T18:53:47.288Z,60.40
2019-04-28T18:56:16.910Z,60.10
2019-04-28T18:58:46.799Z,56.20
2019-04-28T19:01:22.297Z,58.70
2019-04-28T19:03:51.828Z,58.20
2019-04-28T19:06:21.584Z,58.50
2019-04-28T19:08:55.442Z,56.00
2019-04-28T19:11:26.716Z,57.80
2019-04-28T19:13:57.883Z,56.90
2019-04-28T19:16:29.024Z,56.00
2019-04-28T19:19:04.023Z,55.70
2019-04-28T19:21:35.062Z,55.10
2019-04-28T19:24:04.635Z,54.10
2019-04-28T19:26:34.275Z,54.60
2019-04-28T19:29:05.201Z,54.90
2019-04-28T19:31:34.861Z,55.60
2019-04-28T19:34:04.462Z,56.10
2019-04-28T19:36:33.988Z,56.50
2019-04-28T19:39:04.308Z,56.80
2019-04-28T19:41:35.438Z,57.50
2019-04-28T19:44:17.294Z,57.60
2019-04-28T19:46:46.893Z,57.50
2019-04-28T19:49:16.508Z,57.80
2019-04-28T19:51:46.075Z,57.10
2019-04-28T19:54:17.540Z,57.60
2019-04-28T19:56:48.676Z,57.90
2019-04-28T19:59:22.825Z,58.00
2019-04-28T20:01:52.445Z,52.40
2019-04-28T20:04:23.441Z,51.30
2019-04-28T20:06:54.638Z,46.80
2019-04-28T20:09:24.249Z,46.10
2019-04-28T20:11:53.845Z,45.20
2019-04-28T20:14:23.337Z,44.60
2019-04-28T20:16:53.024Z,44.70
2019-04-28T20:19:22.887Z,45.00
2019-04-28T20:21:52.361Z,45.40
2019-04-28T20:24:21.922Z,45.40
2019-04-28T20:26:51.612Z,45.90
2019-04-28T20:29:23.225Z,45.30
2019-04-28T20:31:52.618Z,45.30
2019-04-28T20:34:22.228Z,45.50
2019-04-28T20:36:53.355Z,45.80
2019-04-28T20:39:24.611Z,46.30
2019-04-28T20:41:55.528Z,46.20
2019-04-28T20:44:25.080Z,46.20
2019-04-28T20:46:54.579Z,46.50
2019-04-28T20:49:24.052Z,46.60
2019-04-28T20:51:53.538Z,46.60
2019-04-28T20:54:25.300Z,46.90
2019-04-28T20:56:55.172Z,47.30
2019-04-28T20:59:24.783Z,47.60
2019-04-28T21:01:54.313Z,47.70
2019-04-28T21:04:23.859Z,47.70
2019-04-28T21:06:53.359Z,48.30
2019-04-28T21:09:23.092Z,49.50
2019-04-28T21:11:52.637Z,50.90
2019-04-28T21:14:22.153Z,52.70
2019-04-28T21:16:51.580Z,55.00
2019-04-28T21:19:21.164Z,56.80
2019-04-28T21:21:50.763Z,58.00
2019-04-28T21:24:20.386Z,58.80
2019-04-28T21:26:49.925Z,57.90
2019-04-28T21:29:20.263Z,59.00
2019-04-28T21:31:49.831Z,61.30
2019-04-28T21:34:19.358Z,60.90
2019-04-28T21:36:49.081Z,64.70
2019-04-28T21:39:20.102Z,65.40
2019-04-28T21:41:49.644Z,63.00
2019-04-28T21:44:20.760Z,63.80
2019-04-28T21:46:51.900Z,65.20
2019-04-28T21:49:23.376Z,66.70
2019-04-28T21:51:53.042Z,64.10
2019-04-28T21:54:22.670Z,66.40
2019-04-28T21:56:52.448Z,67.80
2019-04-28T21:59:22.016Z,68.00
2019-04-28T22:01:53.166Z,66.10
2019-04-28T22:04:22.796Z,68.60
2019-04-28T22:06:52.407Z,68.30
2019-04-28T22:09:25.318Z,68.70
2019-04-28T22:11:56.089Z,68.70
2019-04-28T22:14:25.669Z,68.40
2019-04-28T22:16:56.523Z,66.20
2019-04-28T22:19:26.773Z,65.10
2019-04-28T22:21:56.269Z,62.80
2019-04-28T22:24:27.426Z,64.50
2019-04-28T22:26:56.859Z,65.70
2019-04-28T22:29:26.494Z,66.10
2019-04-28T22:31:56.114Z,66.70
2019-04-28T22:34:25.780Z,67.10
2019-04-28T22:36:55.350Z,67.30
2019-04-28T22:39:26.934Z,68.40
2019-04-28T22:41:58.136Z,68.10
2019-04-28T22:44:27.877Z,69.40
2019-04-28T22:46:57.357Z,69.80
2019-04-28T22:49:32.457Z,69.80
2019-04-28T22:52:12.355Z,70.40
2019-04-28T22:54:49.839Z,70.80
2019-04-28T22:57:47.131Z,70.70
2019-04-28T23:00:29.879Z,70.10
2019-04-28T23:03:01.583Z,70.00
2019-04-28T23:05:31.061Z,69.50
2019-04-28T23:08:00.555Z,69.30
2019-04-28T23:10:30.153Z,69.50
2019-04-28T23:12:59.652Z,70.00
2019-04-28T23:15:29.202Z,70.40
2019-04-28T23:17:58.925Z,70.20
2019-04-28T23:24:23.239Z,70.50
2019-04-28T23:26:52.680Z,70.60
2019-04-28T23:29:22.937Z,70.20
2019-04-28T23:31:53.629Z,69.80
2019-04-28T23:34:23.193Z,70.40
2019-04-28T23:36:53.421Z,70.50
2019-04-28T23:39:23.061Z,70.70
2019-04-28T23:41:54.098Z,70.70
2019-04-28T23:44:23.731Z,69.70
2019-04-28T23:47:02.652Z,70.10
2019-04-28T23:49:32.262Z,70.80
2019-04-28T23:52:09.269Z,70.80
2019-04-28T23:54:40.463Z,71.10
2019-04-28T23:57:09.883Z,70.80
2019-04-28T23:59:39.524Z,70.50
